Schedule Details


Flight Number: CTN471
Departure: Charles-de-gaulle (LFPG) at 18:30
Arrival: Franjo Tudman (LDZA) at 20:20
Route: LANVI UM164 EPL UN491 DEGES UN871 MADEB UN606 ELMEM UL607 GEDSO DCT VEKEN Y177 DEGUM DCT ARGOM

Weather Information
LFPG 251330Z 07005KT 4000 BR FEW004 BKN073 04/02 Q1019 NOSIG
LDZA 251330Z VRB02KT 8000 FEW047 06/02 Q1022 NOSIG
Schedule Frequency

Route Map